Time,TemperatureF,DewpointF,PressureIn,WindDirection,WindDirectionDegrees,WindSpeedMPH,WindSpeedGustMPH,Humidity,HourlyPrecipIn,Conditions,Clouds,dailyrainin,SoftwareType,DateUTC
2013-12-28 00:03:00,58.5,54.6,30.27,NNE,26,4.0,12.0,87,0.00,,,0.00,Weather View 32 v70,2013-12-28 05:03:00,
2013-12-28 00:09:00,58.7,54.5,30.27,North,355,4.0,12.0,86,0.00,,,0.00,Weather View 32 v70,2013-12-28 05:09:00,
2013-12-28 00:19:00,58.9,54.4,30.26,North,5,3.0,9.0,85,0.00,,,0.00,Weather View 32 v70,2013-12-28 05:19:00,
2013-12-28 00:29:00,59.0,54.5,30.27,North,360,5.0,8.0,85,0.00,,,0.00,Weather View 32 v70,2013-12-28 05:29:00,
2013-12-28 00:39:00,59.1,54.6,30.27,WNW,302,2.0,8.0,85,0.00,,,0.00,Weather View 32 v70,2013-12-28 05:39:00,
2013-12-28 00:49:00,59.2,54.7,30.27,North,349,3.0,8.0,85,0.00,,,0.00,Weather View 32 v70,2013-12-28 05:49:00,
2013-12-28 00:59:00,59.2,54.7,30.27,NNW,341,1.0,8.0,85,0.00,,,0.00,Weather View 32 v70,2013-12-28 05:59:00,
2013-12-28 01:04:00,59.2,54.7,30.27,NNW,341,1.0,8.0,85,0.00,,,0.00,Weather View 32 v70,2013-12-28 06:04:00,
2013-12-28 01:09:00,59.3,54.8,30.26,NNE,13,2.0,8.0,85,0.00,,,0.00,Weather View 32 v70,2013-12-28 06:09:00,
2013-12-28 01:19:00,59.5,55.0,30.25,NNE,13,3.0,7.0,85,0.00,,,0.00,Weather View 32 v70,2013-12-28 06:19:00,
2013-12-28 01:29:00,59.5,55.0,30.24,North,360,4.0,7.0,85,0.00,,,0.00,Weather View 32 v70,2013-12-28 06:29:00,
2013-12-28 01:39:00,59.5,55.0,30.24,NNE,23,4.0,7.0,85,0.00,,,0.00,Weather View 32 v70,2013-12-28 06:39:00,
2013-12-28 01:49:00,59.4,54.9,30.23,North,11,4.0,7.0,85,0.00,,,0.00,Weather View 32 v70,2013-12-28 06:49:00,
2013-12-28 01:59:00,59.4,54.9,30.23,North,11,1.0,10.0,85,0.00,,,0.00,Weather View 32 v70,2013-12-28 06:59:00,
2013-12-28 02:04:00,59.4,54.9,30.23,North,11,1.0,10.0,85,0.00,,,0.00,Weather View 32 v70,2013-12-28 07:04:00,
2013-12-28 02:09:00,59.4,54.9,30.23,North,350,3.0,10.0,85,0.00,,,0.00,Weather View 32 v70,2013-12-28 07:09:00,
2013-12-28 02:19:00,59.6,55.1,30.24,North,11,5.0,10.0,85,0.00,,,0.00,Weather View 32 v70,2013-12-28 07:19:00,
2013-12-28 02:29:00,59.7,55.2,30.25,NNE,20,2.0,10.0,85,0.00,,,0.00,Weather View 32 v70,2013-12-28 07:29:00,
2013-12-28 02:39:00,59.8,55.6,30.25,NNE,27,1.0,10.0,86,0.00,,,0.00,Weather View 32 v70,2013-12-28 07:39:00,
2013-12-28 02:49:00,59.6,55.4,30.23,North,360,2.0,10.0,86,0.00,,,0.00,Weather View 32 v70,2013-12-28 07:49:00,
2013-12-28 02:59:00,59.5,55.3,30.23,NNE,21,0.0,8.0,86,0.00,,,0.00,Weather View 32 v70,2013-12-28 07:59:00,
2013-12-28 03:05:00,59.5,55.3,30.23,NNE,21,0.0,8.0,86,0.00,,,0.00,Weather View 32 v70,2013-12-28 08:05:00,
2013-12-28 03:09:00,59.5,55.3,30.23,North,5,4.0,8.0,86,0.00,,,0.00,Weather View 32 v70,2013-12-28 08:09:00,
2013-12-28 03:19:00,59.5,55.3,30.22,North,5,3.0,8.0,86,0.00,,,0.00,Weather View 32 v70,2013-12-28 08:19:00,
2013-12-28 03:29:00,59.6,55.4,30.22,North,355,4.0,8.0,86,0.00,,,0.00,Weather View 32 v70,2013-12-28 08:29:00,
2013-12-28 03:39:00,59.7,55.5,30.22,North,5,1.0,8.0,86,0.00,,,0.00,Weather View 32 v70,2013-12-28 08:39:00,
2013-12-28 03:49:00,59.6,55.4,30.22,North,355,2.0,8.0,86,0.00,,,0.00,Weather View 32 v70,2013-12-28 08:49:00,
2013-12-28 03:59:00,59.8,55.3,30.22,North,351,2.0,8.0,85,0.00,,,0.00,Weather View 32 v70,2013-12-28 08:59:00,
2013-12-28 04:06:00,59.8,55.3,30.22,North,351,2.0,8.0,85,0.00,,,0.00,Weather View 32 v70,2013-12-28 09:06:00,
2013-12-28 04:19:00,59.9,55.7,30.22,NNE,22,3.0,8.0,86,0.00,,,0.00,Weather View 32 v70,2013-12-28 09:19:00,
2013-12-28 04:29:00,60.0,55.8,30.22,North,9,1.0,8.0,86,0.00,,,0.00,Weather View 32 v70,2013-12-28 09:29:00,
2013-12-28 04:39:00,60.0,55.8,30.22,NNE,20,2.0,8.0,86,0.00,,,0.00,Weather View 32 v70,2013-12-28 09:39:00,
2013-12-28 04:49:00,60.0,55.8,30.21,NNE,22,1.0,8.0,86,0.00,,,0.00,Weather View 32 v70,2013-12-28 09:49:00,
2013-12-28 04:59:00,60.2,56.0,30.21,NE,35,3.0,8.0,86,0.00,,,0.00,Weather View 32 v70,2013-12-28 09:59:00,
2013-12-28 05:06:00,60.2,56.0,30.21,NE,35,3.0,8.0,86,0.00,,,0.00,Weather View 32 v70,2013-12-28 10:06:00,
2013-12-28 05:09:00,60.2,56.0,30.20,NNE,27,3.0,8.0,86,0.00,,,0.00,Weather View 32 v70,2013-12-28 10:09:00,
2013-12-28 05:19:00,60.2,56.3,30.19,NNE,15,3.0,8.0,87,0.00,,,0.00,Weather View 32 v70,2013-12-28 10:19:00,
2013-12-28 05:29:00,60.3,56.4,30.19,NNW,334,4.0,9.0,87,0.00,,,0.00,Weather View 32 v70,2013-12-28 10:29:00,
2013-12-28 05:39:00,60.3,56.4,30.20,NNE,21,1.0,9.0,87,0.00,,,0.00,Weather View 32 v70,2013-12-28 10:39:00,
2013-12-28 05:49:00,60.4,56.5,30.20,NNE,18,5.0,9.0,87,0.00,,,0.00,Weather View 32 v70,2013-12-28 10:49:00,
2013-12-28 05:59:00,60.5,56.6,30.20,North,355,3.0,9.0,87,0.00,,,0.00,Weather View 32 v70,2013-12-28 10:59:00,
2013-12-28 06:07:00,60.5,56.6,30.20,North,355,3.0,9.0,87,0.00,,,0.00,Weather View 32 v70,2013-12-28 11:07:00,
2013-12-28 06:09:00,60.5,56.9,30.20,NE,46,2.0,9.0,88,0.00,,,0.00,Weather View 32 v70,2013-12-28 11:09:00,
2013-12-28 06:19:00,60.7,57.1,30.20,North,360,2.0,9.0,88,0.00,,,0.00,Weather View 32 v70,2013-12-28 11:19:00,
2013-12-28 06:29:00,60.8,57.2,30.20,North,5,1.0,8.0,88,0.00,,,0.00,Weather View 32 v70,2013-12-28 11:29:00,
2013-12-28 06:39:00,60.8,57.2,30.20,North,11,1.0,8.0,88,0.00,,,0.00,Weather View 32 v70,2013-12-28 11:39:00,
2013-12-28 06:49:00,61.0,57.4,30.21,NNE,22,3.0,8.0,88,0.00,,,0.00,Weather View 32 v70,2013-12-28 11:49:00,
2013-12-28 06:59:00,61.2,57.6,30.21,NNE,33,1.0,8.0,88,0.00,,,0.00,Weather View 32 v70,2013-12-28 11:59:00,
2013-12-28 07:07:00,61.2,57.6,30.21,NNE,33,1.0,8.0,88,0.00,,,0.00,Weather View 32 v70,2013-12-28 12:07:00,
2013-12-28 07:09:00,61.2,57.9,30.21,NNE,19,1.0,8.0,89,0.00,,,0.00,Weather View 32 v70,2013-12-28 12:09:00,
2013-12-28 07:19:00,61.3,58.0,30.21,NNE,20,1.0,8.0,89,0.00,,,0.00,Weather View 32 v70,2013-12-28 12:19:00,
2013-12-28 07:29:00,61.6,58.3,30.21,North,360,2.0,7.0,89,0.00,,,0.00,Weather View 32 v70,2013-12-28 12:29:00,
2013-12-28 07:39:00,61.8,58.5,30.21,NNW,346,0.0,7.0,89,0.00,,,0.00,Weather View 32 v70,2013-12-28 12:39:00,
2013-12-28 07:49:00,62.0,58.7,30.21,North,350,2.0,7.0,89,0.00,,,0.00,Weather View 32 v70,2013-12-28 12:49:00,
2013-12-28 07:59:00,62.2,59.2,30.21,North,355,3.0,5.0,90,0.00,,,0.00,Weather View 32 v70,2013-12-28 12:59:00,
2013-12-28 08:08:00,62.2,59.2,30.21,North,355,3.0,5.0,90,0.00,,,0.00,Weather View 32 v70,2013-12-28 13:08:00,
2013-12-28 08:09:00,62.2,59.5,30.21,NNE,25,2.0,5.0,91,0.00,,,0.00,Weather View 32 v70,2013-12-28 13:09:00,
2013-12-28 08:19:00,62.2,59.5,30.22,NE,37,2.0,5.0,91,0.00,,,0.00,Weather View 32 v70,2013-12-28 13:19:00,
2013-12-28 08:29:00,62.2,60.1,30.22,NNE,19,0.0,6.0,93,0.00,,,0.00,Weather View 32 v70,2013-12-28 13:29:00,
2013-12-28 08:39:00,62.2,60.1,30.22,North,5,1.0,6.0,93,0.00,,,0.00,Weather View 32 v70,2013-12-28 13:39:00,
2013-12-28 08:49:00,62.2,60.4,30.22,NNE,13,1.0,6.0,94,0.00,,,0.00,Weather View 32 v70,2013-12-28 13:49:00,
2013-12-28 08:59:00,62.4,60.6,30.23,NNE,14,3.0,6.0,94,0.00,,,0.00,Weather View 32 v70,2013-12-28 13:59:00,
2013-12-28 09:08:00,62.4,60.6,30.23,NNE,14,3.0,6.0,94,0.00,,,0.00,Weather View 32 v70,2013-12-28 14:08:00,
2013-12-28 09:09:00,62.4,60.9,30.23,NNW,348,2.0,6.0,95,0.00,,,0.00,Weather View 32 v70,2013-12-28 14:09:00,
2013-12-28 09:19:00,62.5,61.0,30.24,North,10,2.0,6.0,95,0.00,,,0.00,Weather View 32 v70,2013-12-28 14:19:00,
2013-12-28 09:29:00,62.9,61.4,30.24,NNE,15,0.0,6.0,95,0.00,,,0.00,Weather View 32 v70,2013-12-28 14:29:00,
2013-12-28 09:39:00,63.1,61.9,30.24,NNE,19,3.0,7.0,96,0.00,,,0.00,Weather View 32 v70,2013-12-28 14:39:00,
2013-12-28 09:49:00,63.3,62.1,30.24,NNE,21,4.0,7.0,96,0.00,,,0.00,Weather View 32 v70,2013-12-28 14:49:00,
2013-12-28 09:59:00,63.5,62.0,30.24,North,9,2.0,7.0,95,0.00,,,0.00,Weather View 32 v70,2013-12-28 14:59:00,
2013-12-28 10:10:00,63.9,62.4,30.24,North,10,1.0,7.0,95,0.00,,,0.00,Weather View 32 v70,2013-12-28 15:10:00,
2013-12-28 10:19:00,64.3,62.8,30.24,NE,51,5.0,7.0,95,0.01,,,0.01,Weather View 32 v70,2013-12-28 15:19:00,
2013-12-28 10:29:00,64.5,63.0,30.24,NNE,32,4.0,7.0,95,0.02,,,0.02,Weather View 32 v70,2013-12-28 15:29:00,
2013-12-28 10:39:00,64.6,63.4,30.23,NNE,18,3.0,7.0,96,0.02,,,0.02,Weather View 32 v70,2013-12-28 15:39:00,
2013-12-28 10:49:00,64.8,63.6,30.23,NNE,22,2.0,7.0,96,0.02,,,0.02,Weather View 32 v70,2013-12-28 15:49:00,
2013-12-28 10:59:00,64.9,63.7,30.22,North,355,3.0,7.0,96,0.02,,,0.02,Weather View 32 v70,2013-12-28 15:59:00,
2013-12-28 11:09:00,65.3,64.1,30.21,NNW,344,5.0,7.0,96,0.03,,,0.03,Weather View 32 v70,2013-12-28 16:09:00,
2013-12-28 11:11:00,65.3,64.1,30.21,NNW,344,5.0,7.0,96,0.03,,,0.03,Weather View 32 v70,2013-12-28 16:11:00,
2013-12-28 11:19:00,65.5,64.3,30.21,North,349,5.0,8.0,96,0.02,,,0.03,Weather View 32 v70,2013-12-28 16:19:00,
2013-12-28 11:29:00,65.7,64.5,30.21,ENE,59,1.0,8.0,96,0.01,,,0.03,Weather View 32 v70,2013-12-28 16:29:00,
2013-12-28 11:39:00,65.8,64.6,30.20,North,5,0.0,8.0,96,0.01,,,0.03,Weather View 32 v70,2013-12-28 16:39:00,
2013-12-28 11:49:00,66.0,64.8,30.20,NE,36,2.0,8.0,96,0.01,,,0.03,Weather View 32 v70,2013-12-28 16:49:00,
2013-12-28 11:59:00,66.5,65.3,30.19,North,11,4.0,8.0,96,0.01,,,0.03,Weather View 32 v70,2013-12-28 16:59:00,
2013-12-28 12:09:00,66.5,65.3,30.19,NE,38,2.0,8.0,96,0.00,,,0.03,Weather View 32 v70,2013-12-28 17:09:00,
2013-12-28 12:11:00,66.5,65.3,30.19,NE,38,2.0,8.0,96,0.00,,,0.03,Weather View 32 v70,2013-12-28 17:11:00,
2013-12-28 12:19:00,66.5,65.3,30.18,NE,38,0.0,7.0,96,0.01,,,0.04,Weather View 32 v70,2013-12-28 17:19:00,
2013-12-28 12:29:00,66.5,65.3,30.17,NNE,12,1.0,7.0,96,0.01,,,0.04,Weather View 32 v70,2013-12-28 17:29:00,
2013-12-28 12:39:00,66.5,65.6,30.17,NNE,21,2.0,7.0,97,0.01,,,0.04,Weather View 32 v70,2013-12-28 17:39:00,
2013-12-28 12:49:00,66.6,65.7,30.16,North,360,2.0,7.0,97,0.01,,,0.04,Weather View 32 v70,2013-12-28 17:49:00,
2013-12-28 12:59:00,67.0,66.1,30.15,North,360,0.0,7.0,97,0.01,,,0.04,Weather View 32 v70,2013-12-28 17:59:00,
2013-12-28 13:09:00,67.4,66.5,30.14,NNE,27,3.0,5.0,97,0.01,,,0.04,Weather View 32 v70,2013-12-28 18:09:00,
2013-12-28 13:12:00,67.4,66.5,30.14,NNE,27,3.0,5.0,97,0.01,,,0.04,Weather View 32 v70,2013-12-28 18:12:00,
2013-12-28 13:19:00,67.9,67.0,30.13,North,351,3.0,6.0,97,0.00,,,0.04,Weather View 32 v70,2013-12-28 18:19:00,
2013-12-28 13:29:00,68.0,66.8,30.12,NNE,16,2.0,7.0,96,0.00,,,0.04,Weather View 32 v70,2013-12-28 18:29:00,
2013-12-28 13:39:00,68.3,67.1,30.11,NNE,30,2.0,7.0,96,0.00,,,0.04,Weather View 32 v70,2013-12-28 18:39:00,
2013-12-28 13:49:00,68.6,67.4,30.10,North,5,2.0,7.0,96,0.01,,,0.05,Weather View 32 v70,2013-12-28 18:49:00,
2013-12-28 13:59:00,69.2,68.0,30.10,North,5,2.0,7.0,96,0.01,,,0.05,Weather View 32 v70,2013-12-28 18:59:00,
2013-12-28 14:09:00,69.5,68.3,30.09,North,360,3.0,7.0,96,0.01,,,0.05,Weather View 32 v70,2013-12-28 19:09:00,
2013-12-28 14:19:00,69.8,68.3,30.08,NE,34,2.0,7.0,95,0.01,,,0.05,Weather View 32 v70,2013-12-28 19:19:00,
2013-12-28 14:29:00,69.9,68.4,30.08,ENE,63,5.0,7.0,95,0.01,,,0.05,Weather View 32 v70,2013-12-28 19:29:00,
2013-12-28 14:39:00,70.4,68.6,30.08,NE,47,5.0,7.0,94,0.01,,,0.05,Weather View 32 v70,2013-12-28 19:39:00,
2013-12-28 14:49:00,70.8,68.7,30.08,ENE,60,0.0,7.0,93,0.00,,,0.05,Weather View 32 v70,2013-12-28 19:49:00,
2013-12-28 14:59:00,71.1,68.6,30.08,East,79,3.0,7.0,92,0.00,,,0.05,Weather View 32 v70,2013-12-28 19:59:00,
2013-12-28 15:09:00,71.3,68.8,30.08,NE,54,3.0,7.0,92,0.00,,,0.05,Weather View 32 v70,2013-12-28 20:09:00,
2013-12-28 15:13:00,71.3,68.8,30.08,NE,54,3.0,7.0,92,0.00,,,0.05,Weather View 32 v70,2013-12-28 20:13:00,
2013-12-28 15:19:00,71.5,68.7,30.07,NE,53,3.0,9.0,91,0.00,,,0.05,Weather View 32 v70,2013-12-28 20:19:00,
2013-12-28 15:29:00,71.9,68.8,30.07,ENE,65,1.0,9.0,90,0.00,,,0.05,Weather View 32 v70,2013-12-28 20:29:00,
2013-12-28 15:39:00,72.2,68.8,30.08,ENE,59,5.0,9.0,89,0.00,,,0.05,Weather View 32 v70,2013-12-28 20:39:00,
2013-12-28 15:49:00,72.3,68.5,30.08,NE,56,4.0,9.0,88,0.00,,,0.05,Weather View 32 v70,2013-12-28 20:49:00,
2013-12-28 16:13:00,72.0,67.9,30.08,ENE,68,4.0,9.0,87,0.00,,,0.05,Weather View 32 v70,2013-12-28 21:13:00,
2013-12-28 16:19:00,72.0,67.6,30.07,East,86,3.0,7.0,86,0.00,,,0.05,Weather View 32 v70,2013-12-28 21:19:00,
2013-12-28 16:29:00,72.0,67.9,30.07,East,82,1.0,7.0,87,0.00,,,0.05,Weather View 32 v70,2013-12-28 21:29:00,
2013-12-28 16:39:00,71.6,67.5,30.07,East,86,2.0,7.0,87,0.00,,,0.05,Weather View 32 v70,2013-12-28 21:39:00,
2013-12-28 16:49:00,71.5,67.4,30.07,ENE,76,3.0,7.0,87,0.00,,,0.05,Weather View 32 v70,2013-12-28 21:49:00,
2013-12-28 16:59:00,71.6,67.2,30.07,East,91,2.0,7.0,86,0.00,,,0.05,Weather View 32 v70,2013-12-28 21:59:00,
2013-12-28 17:09:00,71.4,67.0,30.07,ENE,74,2.0,7.0,86,0.00,,,0.05,Weather View 32 v70,2013-12-28 22:09:00,
2013-12-28 17:14:00,71.4,67.0,30.07,ENE,74,2.0,7.0,86,0.00,,,0.05,Weather View 32 v70,2013-12-28 22:14:00,
2013-12-28 17:19:00,71.1,67.0,30.07,East,95,2.0,7.0,87,0.00,,,0.05,Weather View 32 v70,2013-12-28 22:19:00,
2013-12-28 17:29:00,70.6,66.9,30.07,ESE,111,1.0,7.0,88,0.00,,,0.05,Weather View 32 v70,2013-12-28 22:29:00,
2013-12-28 17:39:00,70.3,66.9,30.07,East,94,5.0,7.0,89,0.00,,,0.05,Weather View 32 v70,2013-12-28 22:39:00,
2013-12-28 17:49:00,68.6,65.9,30.08,SE,124,0.0,7.0,91,0.01,,,0.06,Weather View 32 v70,2013-12-28 22:49:00,
2013-12-28 17:59:00,67.5,65.7,30.07,ESE,123,0.0,7.0,94,0.03,,,0.08,Weather View 32 v70,2013-12-28 22:59:00,
2013-12-28 18:09:00,67.9,66.4,30.07,East,79,0.0,7.0,95,0.05,,,0.10,Weather View 32 v70,2013-12-28 23:09:00,
2013-12-28 18:14:00,67.9,66.4,30.07,East,79,0.0,7.0,95,0.05,,,0.10,Weather View 32 v70,2013-12-28 23:14:00,
2013-12-28 18:19:00,67.8,66.3,30.07,ESE,111,0.0,6.0,95,0.05,,,0.10,Weather View 32 v70,2013-12-28 23:19:00,
2013-12-28 18:29:00,67.6,66.4,30.07,ESE,111,0.0,5.0,96,0.05,,,0.10,Weather View 32 v70,2013-12-28 23:29:00,
2013-12-28 18:39:00,67.9,66.7,30.06,ESE,111,2.0,5.0,96,0.05,,,0.10,Weather View 32 v70,2013-12-28 23:39:00,
2013-12-28 18:49:00,68.2,67.0,30.06,East,79,3.0,3.0,96,0.04,,,0.10,Weather View 32 v70,2013-12-28 23:49:00,
2013-12-28 18:59:00,68.3,67.1,30.06,ENE,69,1.0,4.0,96,0.02,,,0.10,Weather View 32 v70,2013-12-28 23:59:00,
2013-12-28 19:09:00,68.3,67.1,30.06,ENE,73,4.0,7.0,96,0.00,,,0.10,Weather View 32 v70,2013-12-29 00:09:00,
2013-12-28 19:15:00,68.3,67.1,30.06,ENE,73,4.0,7.0,96,0.00,,,0.10,Weather View 32 v70,2013-12-29 00:15:00,
2013-12-28 19:19:00,68.1,66.9,30.05,ENE,76,4.0,7.0,96,0.00,,,0.10,Weather View 32 v70,2013-12-29 00:19:00,
2013-12-28 19:29:00,68.0,66.8,30.06,East,86,0.0,7.0,96,0.00,,,0.10,Weather View 32 v70,2013-12-29 00:29:00,
2013-12-28 19:39:00,67.9,66.7,30.06,ENE,75,1.0,7.0,96,0.00,,,0.10,Weather View 32 v70,2013-12-29 00:39:00,
2013-12-28 19:49:00,67.9,66.7,30.06,ENE,78,3.0,7.0,96,0.00,,,0.10,Weather View 32 v70,2013-12-29 00:49:00,
2013-12-28 19:59:00,67.6,66.4,30.06,East,88,1.0,7.0,96,0.00,,,0.10,Weather View 32 v70,2013-12-29 00:59:00,
2013-12-28 20:09:00,67.5,66.3,30.05,East,82,1.0,7.0,96,0.00,,,0.10,Weather View 32 v70,2013-12-29 01:09:00,
2013-12-28 20:16:00,67.5,66.3,30.05,East,82,1.0,7.0,96,0.00,,,0.10,Weather View 32 v70,2013-12-29 01:16:00,
2013-12-28 20:19:00,67.6,66.4,30.05,East,88,2.0,6.0,96,0.00,,,0.10,Weather View 32 v70,2013-12-29 01:19:00,
2013-12-28 20:29:00,67.7,66.5,30.05,ENE,76,3.0,6.0,96,0.00,,,0.10,Weather View 32 v70,2013-12-29 01:29:00,
2013-12-28 20:39:00,67.6,66.4,30.05,East,89,0.0,6.0,96,0.00,,,0.10,Weather View 32 v70,2013-12-29 01:39:00,
2013-12-28 20:50:00,67.7,66.5,30.04,East,84,2.0,6.0,96,0.01,,,0.11,Weather View 32 v70,2013-12-29 01:50:00,
2013-12-28 20:59:00,67.8,66.6,30.04,East,84,6.0,7.0,96,0.01,,,0.11,Weather View 32 v70,2013-12-29 01:59:00,
2013-12-28 21:09:00,67.9,66.4,30.03,East,87,5.0,7.0,95,0.01,,,0.11,Weather View 32 v70,2013-12-29 02:09:00,
2013-12-28 21:16:00,67.9,66.4,30.03,East,87,5.0,7.0,95,0.01,,,0.11,Weather View 32 v70,2013-12-29 02:16:00,
2013-12-28 21:19:00,67.8,66.3,30.03,ESE,105,1.0,7.0,95,0.01,,,0.11,Weather View 32 v70,2013-12-29 02:19:00,
2013-12-28 21:29:00,67.7,66.2,30.02,ESE,113,2.0,8.0,95,0.01,,,0.11,Weather View 32 v70,2013-12-29 02:29:00,
2013-12-28 21:39:00,67.5,66.0,30.03,ESE,113,1.0,8.0,95,0.01,,,0.11,Weather View 32 v70,2013-12-29 02:39:00,
2013-12-28 21:49:00,67.4,65.9,30.02,ESE,111,1.0,8.0,95,0.00,,,0.11,Weather View 32 v70,2013-12-29 02:49:00,
2013-12-28 21:59:00,67.4,65.9,30.02,ENE,78,2.0,8.0,95,0.00,,,0.11,Weather View 32 v70,2013-12-29 02:59:00,
2013-12-28 22:09:00,67.2,65.7,30.02,ESE,117,2.0,8.0,95,0.00,,,0.11,Weather View 32 v70,2013-12-29 03:09:00,
2013-12-28 22:17:00,67.2,65.7,30.02,ESE,117,2.0,8.0,95,0.00,,,0.11,Weather View 32 v70,2013-12-29 03:17:00,
2013-12-28 22:19:00,67.3,65.8,30.02,ESE,121,2.0,8.0,95,0.00,,,0.11,Weather View 32 v70,2013-12-29 03:19:00,
2013-12-28 22:29:00,67.6,66.1,30.02,ESE,121,1.0,7.0,95,0.00,,,0.11,Weather View 32 v70,2013-12-29 03:29:00,
2013-12-28 22:39:00,67.7,66.2,30.02,SE,126,4.0,7.0,95,0.00,,,0.11,Weather View 32 v70,2013-12-29 03:39:00,
2013-12-28 22:49:00,67.6,66.1,30.01,ESE,109,1.0,7.0,95,0.00,,,0.11,Weather View 32 v70,2013-12-29 03:49:00,
2013-12-28 22:59:00,67.7,66.2,30.01,SE,130,1.0,7.0,95,0.00,,,0.11,Weather View 32 v70,2013-12-29 03:59:00,
2013-12-28 23:09:00,67.6,66.1,30.00,ESE,104,1.0,7.0,95,0.00,,,0.11,Weather View 32 v70,2013-12-29 04:09:00,
2013-12-28 23:17:00,67.6,66.1,30.00,ESE,104,1.0,7.0,95,0.00,,,0.11,Weather View 32 v70,2013-12-29 04:17:00,
2013-12-28 23:19:00,67.7,66.2,29.98,ESE,109,1.0,7.0,95,0.00,,,0.11,Weather View 32 v70,2013-12-29 04:19:00,
2013-12-28 23:29:00,67.7,66.2,29.98,ESE,104,2.0,8.0,95,0.00,,,0.11,Weather View 32 v70,2013-12-29 04:29:00,
2013-12-28 23:39:00,67.7,66.2,29.99,SE,133,4.0,8.0,95,0.00,,,0.11,Weather View 32 v70,2013-12-29 04:39:00,
2013-12-28 23:49:00,67.7,66.2,30.00,SE,138,5.0,8.0,95,0.00,,,0.11,Weather View 32 v70,2013-12-29 04:49:00,
2013-12-28 23:59:00,67.7,66.2,30.00,SE,132,3.0,8.0,95,0.00,,,0.00,Weather View 32 v70,2013-12-29 04:59:00,